Time;durP1;ratioP1;P1;durP2;ratioP2;P2;SDS_P1;SDS_P2;PMS_P1;PMS_P2;Temp;Humidity;BMP_temperature;BMP_pressure;BME280_temperature;BME280_humidity;BME280_pressure;Samples;Min_cycle;Max_cycle;Signal;HPM_P1;HPM_P2
2021/06/28 00:01:28;;;;;;;2.22;0.98;;;18.90;99.90;;;;;;5026008;28;20026;-82
2021/06/28 00:03:53;;;;;;;2.15;1.10;;;18.80;99.90;;;;;;5008023;28;20151;-82
2021/06/28 00:06:20;;;;;;;2.50;1.00;;;18.70;99.90;;;;;;5014084;28;20030;-81
2021/06/28 00:08:46;;;;;;;2.08;1.00;;;18.70;99.90;;;;;;5012301;28;20491;-82
2021/06/28 00:11:12;;;;;;;4.15;1.20;;;18.70;99.90;;;;;;5010434;28;20027;-81
2021/06/28 00:13:40;;;;;;;3.47;1.20;;;18.70;99.90;;;;;;4976951;28;20467;-81
2021/06/28 00:16:07;;;;;;;2.00;0.90;;;18.70;99.90;;;;;;4977374;28;20518;-82
2021/06/28 00:18:34;;;;;;;1.88;0.90;;;18.60;99.90;;;;;;4994419;28;20058;-82
2021/06/28 00:21:00;;;;;;;2.05;0.90;;;18.50;99.90;;;;;;4995260;28;20030;-81
2021/06/28 00:23:26;;;;;;;3.90;1.50;;;18.60;99.90;;;;;;4995275;28;20453;-82
2021/06/28 00:25:51;;;;;;;2.40;1.40;;;18.60;99.90;;;;;;4994894;28;20039;-82
2021/06/28 00:28:17;;;;;;;2.00;1.05;;;18.60;99.90;;;;;;4977140;28;20192;-82
2021/06/28 00:30:44;;;;;;;3.33;1.35;;;18.50;99.90;;;;;;4994590;28;20022;-82
2021/06/28 00:33:16;;;;;;;2.05;1.08;;;18.50;99.90;;;;;;4994653;28;20082;-82
2021/06/28 00:35:42;;;;;;;1.50;1.00;;;18.40;99.90;;;;;;4977222;28;20034;-81
2021/06/28 00:38:09;;;;;;;2.00;1.10;;;18.40;99.90;;;;;;4980967;28;20584;-81
2021/06/28 00:40:36;;;;;;;3.75;1.38;;;18.30;99.90;;;;;;4998227;28;20452;-81
2021/06/28 00:43:02;;;;;;;3.70;1.67;;;18.20;99.90;;;;;;4997854;28;20034;-81
2021/06/28 00:45:30;;;;;;;2.88;1.40;;;18.20;99.90;;;;;;4981021;28;20442;-82
2021/06/28 00:47:59;;;;;;;2.65;1.50;;;18.20;99.90;;;;;;4998278;28;20069;-81
2021/06/28 00:50:28;;;;;;;2.80;1.38;;;18.20;99.90;;;;;;4980513;28;21644;-82
2021/06/28 00:52:59;;;;;;;2.78;1.50;;;18.20;99.90;;;;;;4980717;28;20176;-82
2021/06/28 00:55:25;;;;;;;2.85;1.10;;;18.20;99.90;;;;;;4981054;28;20069;-82
2021/06/28 00:57:52;;;;;;;3.00;1.27;;;18.30;99.90;;;;;;5014553;28;20037;-81
2021/06/28 01:00:18;;;;;;;2.67;1.40;;;18.40;99.90;;;;;;5014570;28;20034;-82
2021/06/28 01:02:44;;;;;;;2.40;1.40;;;18.40;99.90;;;;;;5000534;28;20033;-82
2021/06/28 01:05:16;;;;;;;3.58;1.77;;;18.50;99.90;;;;;;5017199;28;20022;-81
2021/06/28 01:07:43;;;;;;;3.33;1.60;;;18.50;99.90;;;;;;5017441;28;20029;-82
2021/06/28 01:10:11;;;;;;;3.60;1.60;;;18.60;99.90;;;;;;5016727;28;20534;-82
2021/06/28 01:12:36;;;;;;;3.10;1.40;;;18.60;99.90;;;;;;5012196;28;20029;-82
2021/06/28 01:15:04;;;;;;;3.20;1.50;;;18.60;99.90;;;;;;4980151;28;20094;-82
2021/06/28 01:17:30;;;;;;;2.88;1.55;;;18.60;99.90;;;;;;4997311;28;20030;-81
2021/06/28 01:20:04;;;;;;;3.10;1.30;;;18.60;99.90;;;;;;4979481;28;20113;-80
2021/06/28 01:22:32;;;;;;;3.22;1.30;;;18.60;99.90;;;;;;4986617;28;20526;-82
2021/06/28 01:24:59;;;;;;;3.22;1.40;;;18.60;99.90;;;;;;4997128;28;20148;-82
2021/06/28 01:27:27;;;;;;;3.17;1.50;;;18.70;99.90;;;;;;4997046;28;20037;-81
2021/06/28 01:29:54;;;;;;;3.63;1.52;;;18.80;99.90;;;;;;4996607;28;20022;-82
2021/06/28 01:32:21;;;;;;;2.80;1.60;;;18.80;99.90;;;;;;4989972;28;20107;-81
2021/06/28 01:34:47;;;;;;;4.45;1.27;;;18.90;99.90;;;;;;4998917;28;20049;-82
2021/06/28 01:37:19;;;;;;;4.38;1.55;;;18.90;99.90;;;;;;5016504;28;20030;-82
2021/06/28 01:39:46;;;;;;;4.47;1.50;;;19.00;99.90;;;;;;5008131;28;20045;-82
2021/06/28 01:42:11;;;;;;;2.10;1.20;;;19.10;99.90;;;;;;5008461;28;20038;-82
2021/06/28 01:44:37;;;;;;;3.65;1.50;;;19.10;99.90;;;;;;5016402;28;20014;-82
2021/06/28 01:47:03;;;;;;;2.28;1.20;;;19.10;99.90;;;;;;5016600;28;20088;-81
2021/06/28 01:49:29;;;;;;;2.72;1.40;;;19.10;99.90;;;;;;4986782;28;20035;-82
2021/06/28 01:51:55;;;;;;;2.72;1.33;;;19.10;99.90;;;;;;4997040;28;20035;-82
2021/06/28 01:54:20;;;;;;;2.28;1.20;;;19.00;99.90;;;;;;4996676;28;20018;-81
2021/06/28 01:56:46;;;;;;;2.78;1.50;;;19.10;99.90;;;;;;4980255;28;20056;-80
2021/06/28 01:59:12;;;;;;;3.08;1.40;;;19.10;99.90;;;;;;4978808;28;20041;-82
2021/06/28 02:01:38;;;;;;;2.50;1.30;;;19.00;99.90;;;;;;4996715;28;20669;-82
2021/06/28 02:04:04;;;;;;;2.55;1.30;;;19.00;99.90;;;;;;4979050;28;20022;-82
2021/06/28 02:06:30;;;;;;;3.05;1.52;;;18.90;99.90;;;;;;4997295;28;20054;-82
2021/06/28 02:08:56;;;;;;;2.60;1.58;;;18.90;99.90;;;;;;4978705;28;20292;-81
2021/06/28 02:11:21;;;;;;;2.50;1.50;;;19.00;99.90;;;;;;4980510;28;20077;-82
2021/06/28 02:13:47;;;;;;;3.28;1.40;;;19.00;99.90;;;;;;5016343;28;20412;-81
2021/06/28 02:16:12;;;;;;;2.92;1.40;;;19.10;99.90;;;;;;5014861;28;20125;-81
2021/06/28 02:18:38;;;;;;;2.63;1.40;;;19.10;99.90;;;;;;4998974;28;20034;-82
2021/06/28 02:21:04;;;;;;;3.28;1.30;;;19.10;99.90;;;;;;4978391;28;20049;-82
2021/06/28 02:23:39;;;;;;;3.13;1.23;;;19.20;99.90;;;;;;4978872;28;20027;-82
2021/06/28 02:26:08;;;;;;;3.35;1.52;;;19.20;99.90;;;;;;4996832;28;20022;-81
2021/06/28 02:28:37;;;;;;;2.65;1.50;;;19.10;99.90;;;;;;4996191;28;20026;-82
2021/06/28 02:31:04;;;;;;;2.63;1.48;;;19.20;99.90;;;;;;4996780;28;20033;-82
2021/06/28 02:33:30;;;;;;;3.22;1.30;;;19.20;99.90;;;;;;4979211;28;20023;-82
2021/06/28 02:35:56;;;;;;;2.90;1.30;;;19.20;99.90;;;;;;4978836;28;20030;-82
2021/06/28 02:38:22;;;;;;;2.53;1.45;;;19.30;99.90;;;;;;4996755;28;20028;-81
2021/06/28 02:40:48;;;;;;;3.75;1.80;;;19.30;99.90;;;;;;4978443;28;20480;-82
2021/06/28 02:43:14;;;;;;;4.20;1.88;;;19.30;99.90;;;;;;4996512;28;20030;-82
2021/06/28 02:45:40;;;;;;;4.18;1.85;;;19.30;99.90;;;;;;4996740;28;20032;-82
2021/06/28 02:48:06;;;;;;;2.67;1.25;;;19.30;99.90;;;;;;4996594;28;20037;-81
2021/06/28 02:50:32;;;;;;;2.40;1.38;;;19.20;99.90;;;;;;4996049;28;20053;-82
2021/06/28 02:52:58;;;;;;;1.92;1.13;;;19.20;99.90;;;;;;4996875;28;20476;-82
2021/06/28 02:55:23;;;;;;;3.70;1.30;;;19.20;99.90;;;;;;4979406;28;20484;-82
2021/06/28 02:57:49;;;;;;;2.53;1.10;;;19.20;99.90;;;;;;5026271;28;20658;-82
2021/06/28 03:00:16;;;;;;;2.17;1.17;;;19.20;99.90;;;;;;5035406;28;20025;-82
2021/06/28 03:02:43;;;;;;;2.92;1.50;;;19.10;99.90;;;;;;5000568;28;20034;-81
2021/06/28 03:05:10;;;;;;;4.15;1.40;;;19.10;99.90;;;;;;4996081;28;20042;-82
2021/06/28 03:07:36;;;;;;;2.25;1.10;;;19.10;99.90;;;;;;4978555;28;20599;-82
2021/06/28 03:10:05;;;;;;;3.03;1.35;;;19.10;99.90;;;;;;4995720;28;20030;-82
2021/06/28 03:12:30;;;;;;;2.78;1.65;;;19.10;99.90;;;;;;4986178;28;20097;-82
2021/06/28 03:14:56;;;;;;;2.50;1.60;;;19.10;99.90;;;;;;4978688;28;20054;-81
2021/06/28 03:17:22;;;;;;;4.70;1.15;;;19.10;99.90;;;;;;4995926;28;20022;-81
2021/06/28 03:19:48;;;;;;;3.50;1.30;;;19.20;99.90;;;;;;4995250;28;20117;-81
2021/06/28 03:22:16;;;;;;;4.05;1.88;;;19.20;99.90;;;;;;4994471;28;20054;-82
2021/06/28 03:24:41;;;;;;;4.22;1.52;;;19.20;99.90;;;;;;4986484;28;20038;-82
2021/06/28 03:27:07;;;;;;;4.78;1.20;;;19.20;99.90;;;;;;4996683;28;20030;-82
2021/06/28 03:29:33;;;;;;;2.30;1.38;;;19.20;99.90;;;;;;4996426;28;20402;-81
2021/06/28 03:31:58;;;;;;;2.10;1.08;;;19.20;99.90;;;;;;4996504;28;20041;-81
2021/06/28 03:34:24;;;;;;;2.33;1.33;;;19.20;99.90;;;;;;4996602;28;20785;-82
2021/06/28 03:36:49;;;;;;;2.97;1.00;;;19.20;99.90;;;;;;4996085;28;20058;-81
2021/06/28 03:39:15;;;;;;;1.67;0.90;;;19.20;99.90;;;;;;4977394;28;20026;-83
2021/06/28 03:41:40;;;;;;;2.97;1.30;;;19.20;99.90;;;;;;4995481;28;20058;-81
2021/06/28 03:44:06;;;;;;;2.40;1.05;;;19.20;99.90;;;;;;4995399;28;20437;-82
2021/06/28 03:46:32;;;;;;;3.33;1.40;;;19.20;99.90;;;;;;4996166;28;20065;-82
2021/06/28 03:48:58;;;;;;;3.13;1.60;;;19.30;99.90;;;;;;4994168;28;20042;-81
2021/06/28 03:51:23;;;;;;;3.13;1.30;;;19.20;99.90;;;;;;4979510;28;20027;-83
2021/06/28 03:53:49;;;;;;;1.58;0.93;;;19.20;99.90;;;;;;4995850;28;20132;-82
2021/06/28 03:56:15;;;;;;;4.68;1.70;;;19.20;99.90;;;;;;5000514;28;20049;-82
2021/06/28 03:58:44;;;;;;;2.63;1.40;;;19.10;99.90;;;;;;5007248;28;20030;-82
2021/06/28 04:01:10;;;;;;;3.22;1.10;;;19.10;99.90;;;;;;4987497;28;20411;-82
2021/06/28 04:03:37;;;;;;;3.78;1.33;;;19.00;99.90;;;;;;5016041;28;20048;-82
2021/06/28 04:06:05;;;;;;;3.75;1.30;;;19.00;99.90;;;;;;5013200;28;20080;-81
2021/06/28 04:08:32;;;;;;;2.72;1.45;;;18.80;99.90;;;;;;4985477;28;20014;-83
2021/06/28 04:10:58;;;;;;;3.58;1.42;;;18.90;99.90;;;;;;4986855;28;20019;-80
2021/06/28 04:13:27;;;;;;;2.47;1.35;;;19.00;99.90;;;;;;5025982;28;20038;-82
2021/06/28 04:15:53;;;;;;;2.78;1.40;;;19.00;99.90;;;;;;5026968;28;20503;-81
2021/06/28 04:18:19;;;;;;;3.75;1.50;;;19.00;99.90;;;;;;5022679;28;20056;-81
2021/06/28 04:20:45;;;;;;;3.63;1.50;;;19.00;99.90;;;;;;5028709;28;20060;-81
2021/06/28 04:23:11;;;;;;;2.47;1.35;;;19.10;99.90;;;;;;5029307;28;20456;-81
2021/06/28 04:25:37;;;;;;;3.00;1.38;;;19.10;99.90;;;;;;5028233;28;20026;-80
2021/06/28 04:28:03;;;;;;;2.83;1.40;;;19.20;99.90;;;;;;5008262;28;20032;-81
2021/06/28 04:30:29;;;;;;;2.67;1.38;;;19.20;99.90;;;;;;5010899;28;20026;-82
2021/06/28 04:32:54;;;;;;;3.33;1.45;;;19.20;99.90;;;;;;5026909;28;20046;-80
2021/06/28 04:35:24;;;;;;;3.05;1.65;;;19.30;99.90;;;;;;5026285;28;20053;-81
2021/06/28 04:37:50;;;;;;;4.25;1.45;;;19.30;99.90;;;;;;5006426;28;20068;-81
2021/06/28 04:40:19;;;;;;;2.45;1.42;;;19.30;99.90;;;;;;5023860;28;20481;-81
2021/06/28 04:42:45;;;;;;;3.33;1.60;;;19.30;99.90;;;;;;4999983;28;20120;-80
2021/06/28 04:45:12;;;;;;;3.08;1.30;;;19.40;99.90;;;;;;5019380;28;20021;-79
2021/06/28 04:47:38;;;;;;;2.75;1.70;;;19.50;99.90;;;;;;5018206;28;20391;-80
2021/06/28 04:50:05;;;;;;;2.72;1.58;;;19.50;99.90;;;;;;5021382;28;20032;-80
2021/06/28 04:52:32;;;;;;;2.80;1.50;;;19.50;99.90;;;;;;5020203;28;20056;-79
2021/06/28 04:55:02;;;;;;;2.63;1.52;;;19.50;99.90;;;;;;5003354;28;20056;-80
2021/06/28 04:57:28;;;;;;;2.85;1.45;;;19.40;99.90;;;;;;5002955;28;20030;-80
2021/06/28 04:59:54;;;;;;;3.72;1.50;;;19.40;99.90;;;;;;5000644;28;20430;-80
2021/06/28 05:02:19;;;;;;;4.00;1.90;;;19.40;99.90;;;;;;4998912;28;20037;-80
2021/06/28 05:04:47;;;;;;;2.92;1.70;;;19.40;99.90;;;;;;4992583;28;20034;-80
2021/06/28 05:07:14;;;;;;;3.00;1.45;;;19.40;99.90;;;;;;4994586;28;20068;-80
2021/06/28 05:09:40;;;;;;;3.38;1.83;;;19.30;99.90;;;;;;5010484;28;20112;-80
2021/06/28 05:12:07;;;;;;;2.72;1.73;;;19.20;99.90;;;;;;5011860;28;20188;-81
2021/06/28 05:14:32;;;;;;;4.47;1.80;;;19.20;99.90;;;;;;5006175;28;20097;-81
2021/06/28 05:16:58;;;;;;;3.67;1.40;;;19.40;99.90;;;;;;4992239;28;20122;-81
2021/06/28 05:19:23;;;;;;;2.78;1.60;;;19.50;99.90;;;;;;5011700;28;20088;-84
2021/06/28 05:21:49;;;;;;;3.50;1.73;;;19.60;99.90;;;;;;5012872;28;20545;-80
2021/06/28 05:24:14;;;;;;;3.92;1.90;;;19.60;99.90;;;;;;4992357;28;20017;-82
2021/06/28 05:26:40;;;;;;;2.88;1.55;;;19.60;99.90;;;;;;5012589;28;20081;-80
2021/06/28 05:29:06;;;;;;;4.18;2.05;;;19.70;99.90;;;;;;5012610;28;20030;-80
2021/06/28 05:31:31;;;;;;;3.28;1.50;;;19.70;99.90;;;;;;5011058;28;20026;-79
2021/06/28 05:33:57;;;;;;;3.50;1.50;;;19.70;99.90;;;;;;5013147;28;20026;-80
2021/06/28 05:36:23;;;;;;;2.83;1.67;;;19.70;99.90;;;;;;4994553;28;20084;-80
2021/06/28 05:38:48;;;;;;;2.88;1.67;;;19.80;99.90;;;;;;5011577;28;20032;-79
2021/06/28 05:41:18;;;;;;;2.85;1.58;;;19.90;99.90;;;;;;5011475;28;20439;-81
2021/06/28 05:43:44;;;;;;;3.15;1.50;;;20.00;99.90;;;;;;5011283;28;20029;-80
2021/06/28 05:46:11;;;;;;;5.00;1.70;;;20.10;99.90;;;;;;4993854;28;20041;-80
2021/06/28 05:48:36;;;;;;;3.35;1.40;;;20.20;99.90;;;;;;4989409;28;20037;-78
2021/06/28 05:51:02;;;;;;;2.20;1.20;;;20.40;99.90;;;;;;4993458;28;20112;-79
2021/06/28 05:53:28;;;;;;;2.92;1.45;;;20.50;99.90;;;;;;5012869;28;20022;-79
2021/06/28 05:55:54;;;;;;;3.85;1.40;;;20.60;99.90;;;;;;4995357;28;20080;-81
2021/06/28 05:58:24;;;;;;;2.92;1.55;;;20.70;99.90;;;;;;5010698;28;20026;-80
2021/06/28 06:00:50;;;;;;;2.50;1.30;;;20.70;99.90;;;;;;4987775;28;20026;-81
2021/06/28 06:03:15;;;;;;;3.70;1.33;;;20.60;99.90;;;;;;5014026;28;20029;-82
2021/06/28 06:05:41;;;;;;;2.42;1.40;;;20.70;99.90;;;;;;4996477;28;20053;-81
2021/06/28 06:08:07;;;;;;;3.20;1.30;;;20.80;99.90;;;;;;5003239;28;20499;-82
2021/06/28 06:10:32;;;;;;;4.13;1.33;;;21.00;99.90;;;;;;4994432;28;20038;-81
2021/06/28 06:12:58;;;;;;;4.35;1.60;;;21.00;99.90;;;;;;5009247;28;20045;-81
2021/06/28 06:15:24;;;;;;;2.83;1.33;;;21.10;99.90;;;;;;5012264;28;20109;-82
2021/06/28 06:17:50;;;;;;;3.03;1.50;;;21.20;99.90;;;;;;4994799;28;20500;-82
2021/06/28 06:20:16;;;;;;;3.75;1.30;;;21.30;99.90;;;;;;4993784;28;20105;-81
2021/06/28 06:22:42;;;;;;;3.05;1.42;;;21.40;99.90;;;;;;4993573;28;20026;-81
2021/06/28 06:25:08;;;;;;;2.03;1.05;;;21.50;99.90;;;;;;4994514;28;20030;-82
2021/06/28 06:27:34;;;;;;;2.22;1.33;;;21.50;99.90;;;;;;5007523;28;20431;-82
2021/06/28 06:30:00;;;;;;;2.40;1.27;;;21.50;99.90;;;;;;5014537;28;20014;-83
2021/06/28 06:32:26;;;;;;;1.83;1.08;;;21.60;99.90;;;;;;5011151;28;20052;-82
2021/06/28 06:34:51;;;;;;;4.45;1.63;;;21.70;99.90;;;;;;5013615;28;20026;-82
2021/06/28 06:37:17;;;;;;;2.92;1.50;;;21.70;99.90;;;;;;4995022;28;20053;-82
2021/06/28 06:39:43;;;;;;;2.53;1.27;;;22.00;99.90;;;;;;4995350;28;20041;-81
2021/06/28 06:42:08;;;;;;;2.40;1.25;;;22.10;99.90;;;;;;4995479;28;20041;-80
2021/06/28 06:44:34;;;;;;;4.65;1.75;;;22.30;99.90;;;;;;4993703;28;20050;-82
2021/06/28 06:47:00;;;;;;;2.20;1.10;;;22.40;99.90;;;;;;4977470;28;20116;-80
2021/06/28 06:49:26;;;;;;;1.83;0.95;;;22.50;99.90;;;;;;4979068;28;20102;-81
2021/06/28 06:51:52;;;;;;;2.72;1.30;;;22.60;99.90;;;;;;4997482;28;20039;-89
2021/06/28 06:54:18;;;;;;;3.55;1.40;;;22.70;99.90;;;;;;4983184;28;20022;-87
2021/06/28 06:56:44;;;;;;;2.35;1.20;;;22.80;99.90;;;;;;5004586;28;20041;-87
2021/06/28 06:59:09;;;;;;;1.90;1.10;;;22.80;99.90;;;;;;4984342;28;20356;-87
2021/06/28 07:01:37;;;;;;;2.03;1.05;;;22.80;99.90;;;;;;4992007;28;20636;-87
2021/06/28 07:04:03;;;;;;;1.42;0.80;;;23.00;99.90;;;;;;4993732;28;20030;-87
2021/06/28 07:06:28;;;;;;;2.58;1.33;;;23.20;99.90;;;;;;4984676;28;20088;-87
2021/06/28 07:08:54;;;;;;;2.15;1.20;;;23.20;99.90;;;;;;4973590;28;20496;-87
2021/06/28 07:11:20;;;;;;;1.95;1.02;;;23.40;99.90;;;;;;4975077;28;20089;-87
2021/06/28 07:13:50;;;;;;;2.95;1.10;;;23.40;99.90;;;;;;5009645;28;20182;-88
2021/06/28 07:16:17;;;;;;;2.03;1.17;;;23.40;99.90;;;;;;4998906;28;20178;-87
2021/06/28 07:18:43;;;;;;;1.95;1.20;;;23.60;99.90;;;;;;4973356;28;20018;-87
2021/06/28 07:21:09;;;;;;;2.15;1.10;;;23.70;99.90;;;;;;4971984;28;20089;-87
2021/06/28 07:23:34;;;;;;;3.22;1.42;;;23.90;99.90;;;;;;4986414;28;20488;-87
2021/06/28 07:26:02;;;;;;;2.53;1.30;;;24.10;99.90;;;;;;4991244;28;20046;-86
2021/06/28 07:28:32;;;;;;;2.15;0.98;;;24.20;99.90;;;;;;4990706;28;20077;-86
2021/06/28 07:30:58;;;;;;;3.63;1.30;;;24.20;99.90;;;;;;4990989;28;20046;-86
2021/06/28 07:33:28;;;;;;;2.33;1.30;;;24.30;99.90;;;;;;4973433;28;20080;-86
2021/06/28 07:35:54;;;;;;;3.65;1.38;;;24.30;99.90;;;;;;4991395;28;20022;-87
2021/06/28 07:38:20;;;;;;;3.30;1.40;;;24.40;99.90;;;;;;4981850;28;20399;-87
2021/06/28 07:40:46;;;;;;;2.05;1.23;;;24.50;99.90;;;;;;4991573;28;20049;-86
2021/06/28 07:43:12;;;;;;;2.97;1.00;;;24.60;99.90;;;;;;5006924;28;20484;-86
2021/06/28 07:45:38;;;;;;;2.88;1.40;;;24.80;99.90;;;;;;4992829;28;20022;-86
2021/06/28 07:48:04;;;;;;;3.08;1.40;;;24.80;99.90;;;;;;4991881;28;20057;-86
2021/06/28 07:50:30;;;;;;;3.13;1.42;;;25.00;99.90;;;;;;4988138;28;20371;-86
2021/06/28 07:52:56;;;;;;;4.50;1.83;;;25.00;99.90;;;;;;4973731;28;20092;-86
2021/06/28 07:55:22;;;;;;;2.33;1.30;;;25.20;99.90;;;;;;4991634;28;20034;-86
2021/06/28 07:57:48;;;;;;;2.42;1.30;;;25.20;99.90;;;;;;4990180;28;20037;-86
2021/06/28 08:00:18;;;;;;;1.92;1.08;;;25.20;99.90;;;;;;4991791;28;20037;-86
2021/06/28 08:02:45;;;;;;;3.08;1.35;;;25.30;99.90;;;;;;4997163;28;20025;-86
2021/06/28 08:05:12;;;;;;;2.47;1.00;;;25.30;99.90;;;;;;4996590;28;20037;-86
2021/06/28 08:07:38;;;;;;;2.28;1.13;;;25.50;99.90;;;;;;4996599;28;20507;-86
2021/06/28 08:10:06;;;;;;;2.38;1.20;;;25.70;99.90;;;;;;5003596;28;20045;-86
2021/06/28 08:12:32;;;;;;;1.70;1.00;;;25.90;99.90;;;;;;5007617;28;20029;-87
2021/06/28 08:14:58;;;;;;;2.67;1.20;;;26.20;99.90;;;;;;5015016;28;20060;-86
2021/06/28 08:17:23;;;;;;;3.17;1.05;;;26.30;99.90;;;;;;5003992;28;20022;-86
2021/06/28 08:19:49;;;;;;;4.30;1.00;;;26.20;99.90;;;;;;5010249;28;20053;-87
2021/06/28 08:22:15;;;;;;;2.30;0.80;;;26.20;99.90;;;;;;4993210;28;20037;-88
2021/06/28 08:24:41;;;;;;;2.28;0.90;;;26.40;99.90;;;;;;4989108;28;20118;-87
2021/06/28 08:27:08;;;;;;;1.85;1.10;;;26.60;99.90;;;;;;4988516;28;20104;-88
2021/06/28 08:29:34;;;;;;;1.45;0.70;;;26.80;99.90;;;;;;4973230;28;20027;-88
2021/06/28 08:32:00;;;;;;;1.88;0.70;;;26.80;98.30;;;;;;5000110;28;20026;-88
2021/06/28 08:34:25;;;;;;;2.90;0.85;;;26.90;97.30;;;;;;4993563;28;20050;-88
2021/06/28 08:36:51;;;;;;;3.25;1.17;;;26.90;97.70;;;;;;4994002;28;20045;-89
2021/06/28 08:39:17;;;;;;;1.95;0.93;;;26.70;97.40;;;;;;4991879;28;20037;-88
2021/06/28 08:41:48;;;;;;;2.33;0.95;;;26.60;97.70;;;;;;4973713;28;20034;-88
2021/06/28 08:44:15;;;;;;;2.15;1.00;;;26.60;98.50;;;;;;4976858;28;20057;-88
2021/06/28 08:46:42;;;;;;;1.98;1.05;;;26.50;98.30;;;;;;4974282;28;20030;-88
2021/06/28 08:49:09;;;;;;;3.25;0.90;;;26.30;98.50;;;;;;4972890;28;20065;-88
2021/06/28 08:51:35;;;;;;;1.80;1.08;;;26.40;97.50;;;;;;4991421;28;20034;-88
2021/06/28 08:54:09;;;;;;;3.08;1.00;;;26.40;97.40;;;;;;4973742;28;20035;-88
2021/06/28 08:56:40;;;;;;;1.85;1.00;;;26.60;98.10;;;;;;4997185;28;20030;-88
2021/06/28 08:59:06;;;;;;;1.95;1.10;;;26.50;98.50;;;;;;5038669;23;20072;-82
2021/06/28 09:01:33;;;;;;;1.85;0.90;;;26.70;98.40;;;;;;4999738;28;20042;-81
2021/06/28 09:04:00;;;;;;;2.47;1.10;;;26.80;99.00;;;;;;4995542;28;20153;-81
2021/06/28 09:06:27;;;;;;;3.25;1.17;;;26.90;98.00;;;;;;4965095;28;20023;-81
2021/06/28 09:09:07;;;;;;;2.60;1.15;;;26.90;96.90;;;;;;4985360;28;20022;-82
2021/06/28 09:11:43;;;;;;;2.17;1.15;;;27.00;97.40;;;;;;4996635;28;20026;-81
2021/06/28 09:14:11;;;;;;;4.13;1.30;;;27.10;98.60;;;;;;5015139;28;20033;-82
2021/06/28 09:16:39;;;;;;;1.83;1.00;;;27.20;97.50;;;;;;4987705;28;20022;-82
2021/06/28 09:19:07;;;;;;;2.00;1.20;;;27.50;95.50;;;;;;4998431;28;20022;-82
2021/06/28 09:21:37;;;;;;;2.20;0.90;;;27.70;95.50;;;;;;5005491;28;20030;-81
2021/06/28 09:24:21;;;;;;;2.40;1.10;;;27.70;94.10;;;;;;5000786;28;20042;-82
2021/06/28 09:26:47;;;;;;;1.63;0.80;;;27.90;93.90;;;;;;4970834;28;20025;-81
2021/06/28 09:29:12;;;;;;;2.03;1.13;;;28.00;93.00;;;;;;5016646;28;20034;-82
2021/06/28 09:31:44;;;;;;;2.38;1.05;;;28.00;93.50;;;;;;4982833;28;20029;-82
2021/06/28 09:34:18;;;;;;;1.90;1.02;;;27.80;93.50;;;;;;4999069;28;20093;-81
2021/06/28 09:36:53;;;;;;;1.67;0.90;;;28.10;94.50;;;;;;4999136;28;20045;-81
2021/06/28 09:39:23;;;;;;;1.60;0.73;;;28.30;92.70;;;;;;4992152;28;20034;-82
2021/06/28 09:41:50;;;;;;;2.57;0.90;;;28.10;92.40;;;;;;4978433;28;20038;-82
2021/06/28 09:44:16;;;;;;;2.00;0.90;;;28.20;91.00;;;;;;4978124;28;20385;-82
2021/06/28 09:46:41;;;;;;;1.48;0.80;;;28.10;90.20;;;;;;4978195;28;20501;-81
2021/06/28 09:49:15;;;;;;;1.45;0.80;;;28.10;90.80;;;;;;4977024;28;20030;-82
2021/06/28 09:51:41;;;;;;;2.30;0.90;;;28.20;91.10;;;;;;4977115;28;20100;-82
2021/06/28 09:54:06;;;;;;;1.50;0.90;;;28.60;91.00;;;;;;4977268;28;21100;-83
2021/06/28 09:56:38;;;;;;;2.22;1.00;;;28.90;90.10;;;;;;4986463;28;20026;-82
2021/06/28 09:59:49;;;;;;;2.58;0.98;;;29.10;90.00;;;;;;5015541;28;20109;-83
2021/06/28 10:02:16;;;;;;;;;;;29.40;91.20;;;;;;4978106;28;20042;-83
2021/06/28 10:05:14;;;;;;;2.70;0.90;;;29.50;90.80;;;;;;4999400;28;19972;-83
2021/06/28 10:07:40;;;;;;;1.40;0.70;;;29.80;88.50;;;;;;4982521;28;20029;-83
2021/06/28 10:10:16;;;;;;;3.38;1.45;;;29.80;87.20;;;;;;4997028;28;20089;-83
2021/06/28 10:12:48;;;;;;;1.52;0.80;;;29.80;87.40;;;;;;4967445;28;20019;-82
2021/06/28 10:15:19;;;;;;;1.98;0.90;;;30.00;84.40;;;;;;4986603;28;20109;-83
2021/06/28 10:17:44;;;;;;;;;;;30.20;84.90;;;;;;5007903;28;20463;-83
2021/06/28 10:20:13;;;;;;;2.03;0.80;;;30.30;81.70;;;;;;5015286;28;19906;-83
2021/06/28 10:22:41;;;;;;;1.33;0.77;;;30.40;80.50;;;;;;5011185;28;20038;-83
2021/06/28 10:25:08;;;;;;;2.30;0.77;;;30.50;79.20;;;;;;4998185;28;20068;-83
2021/06/28 10:27:35;;;;;;;2.05;0.80;;;30.60;77.30;;;;;;5007443;28;20028;-83
2021/06/28 10:30:05;;;;;;;0.88;0.57;;;30.60;77.30;;;;;;4996827;28;20424;-82
2021/06/28 10:32:32;;;;;;;4.60;0.90;;;30.80;77.90;;;;;;4966011;28;20130;-83
2021/06/28 10:34:58;;;;;;;1.35;0.70;;;30.70;77.70;;;;;;4959474;28;20050;-84
2021/06/28 10:37:48;;;;;;;1.20;0.70;;;31.20;78.40;;;;;;4962834;28;20053;-83
2021/06/28 10:40:21;;;;;;;2.15;1.00;;;30.90;75.90;;;;;;4993443;28;20034;-84
2021/06/28 10:42:57;;;;;;;2.75;0.98;;;31.00;77.50;;;;;;4977163;28;20441;-83
2021/06/28 10:45:42;;;;;;;2.53;1.10;;;31.20;77.30;;;;;;4994890;28;20036;-83
2021/06/28 10:48:15;;;;;;;2.20;0.90;;;31.40;79.40;;;;;;4993228;28;20045;-83
2021/06/28 10:51:03;;;;;;;1.73;0.90;;;31.70;77.10;;;;;;4994501;28;20106;-83
2021/06/28 10:53:31;;;;;;;1.90;0.90;;;31.80;78.00;;;;;;5000127;28;20030;-83
2021/06/28 10:55:58;;;;;;;2.13;0.82;;;31.70;74.90;;;;;;4978586;28;20072;-83
2021/06/28 10:58:26;;;;;;;1.90;0.90;;;31.60;76.20;;;;;;4981939;28;20546;-83
2021/06/28 11:01:01;;;;;;;1.77;0.80;;;31.70;75.50;;;;;;4980430;28;20038;-83
2021/06/28 11:03:34;;;;;;;2.25;1.05;;;31.60;76.30;;;;;;5002392;28;20023;-81
2021/06/28 11:06:19;;;;;;;2.55;1.00;;;31.30;74.60;;;;;;4999242;28;20026;-83
2021/06/28 11:09:06;;;;;;;1.92;0.98;;;31.50;73.80;;;;;;4979265;28;20037;-80
2021/06/28 11:11:44;;;;;;;2.88;1.05;;;31.40;73.40;;;;;;4998156;28;20019;-81
2021/06/28 11:14:30;;;;;;;1.75;0.80;;;31.40;76.40;;;;;;4995509;28;20436;-82
2021/06/28 11:17:07;;;;;;;2.65;1.15;;;31.10;75.00;;;;;;4989876;28;20069;-83
2021/06/28 11:19:46;;;;;;;1.88;0.80;;;31.30;75.30;;;;;;5013666;28;20026;-84
2021/06/28 11:22:32;;;;;;;3.85;1.10;;;31.20;74.10;;;;;;5007521;28;20033;-83
2021/06/28 11:25:00;;;;;;;1.95;1.00;;;31.10;74.30;;;;;;4994207;28;20103;-84
2021/06/28 11:27:26;;;;;;;1.58;0.90;;;31.30;74.60;;;;;;4995939;28;20110;-83
2021/06/28 11:29:54;;;;;;;2.53;1.00;;;31.60;74.80;;;;;;5005521;28;20026;-83
2021/06/28 11:32:29;;;;;;;1.67;0.82;;;31.90;74.20;;;;;;4979909;28;20026;-84
2021/06/28 11:34:56;;;;;;;1.70;0.90;;;31.90;72.50;;;;;;4990873;28;20026;-83
2021/06/28 11:37:22;;;;;;;2.08;0.95;;;32.10;71.70;;;;;;4980056;28;20109;-84
2021/06/28 11:39:57;;;;;;;1.92;0.80;;;31.90;72.30;;;;;;4983624;28;20026;-83
2021/06/28 11:42:33;;;;;;;2.20;0.93;;;32.00;73.70;;;;;;4973432;28;20030;-84
2021/06/28 11:45:11;;;;;;;1.75;0.93;;;32.00;72.60;;;;;;4998481;28;20113;-83
2021/06/28 11:47:45;;;;;;;1.40;0.85;;;32.20;73.60;;;;;;5002943;28;20042;-83
2021/06/28 11:50:23;;;;;;;2.55;1.08;;;32.20;72.90;;;;;;4981860;28;20027;-83
2021/06/28 11:52:57;;;;;;;1.50;1.05;;;32.50;76.40;;;;;;4980647;28;20096;-83
2021/06/28 11:55:22;;;;;;;1.55;0.95;;;32.50;71.70;;;;;;4990452;28;20033;-83
2021/06/28 11:57:53;;;;;;;2.08;0.93;;;32.30;72.70;;;;;;4997635;28;20038;-83
2021/06/28 12:00:20;;;;;;;2.30;1.00;;;32.30;72.90;;;;;;4997395;28;20400;-82
2021/06/28 12:03:24;;;;;;;2.60;1.02;;;32.50;72.20;;;;;;5003937;28;20084;-83
2021/06/28 12:05:50;;;;;;;2.55;0.95;;;32.30;75.20;;;;;;4983712;28;20044;-82
2021/06/28 12:08:24;;;;;;;2.00;1.20;;;31.90;72.30;;;;;;5001124;28;20026;-82
2021/06/28 12:10:58;;;;;;;3.58;1.20;;;32.10;72.90;;;;;;5000419;28;20022;-81
2021/06/28 12:13:44;;;;;;;3.40;1.15;;;32.10;72.40;;;;;;4998855;28;20034;-81
2021/06/28 12:16:28;;;;;;;1.85;1.00;;;32.10;73.00;;;;;;4994763;28;20049;-80
2021/06/28 12:19:02;;;;;;;1.80;0.90;;;32.40;72.30;;;;;;4992058;28;20026;-80
2021/06/28 12:21:30;;;;;;;1.83;1.00;;;32.70;72.10;;;;;;4984021;28;20057;-83
2021/06/28 12:24:28;;;;;;;2.45;1.10;;;33.00;71.90;;;;;;5004567;28;20053;-81
2021/06/28 12:27:09;;;;;;;1.45;0.90;;;33.40;71.90;;;;;;4932899;28;20030;-83
2021/06/28 12:29:42;;;;;;;2.28;1.00;;;33.60;71.00;;;;;;4980866;28;20375;-83
2021/06/28 12:32:15;;;;;;;1.88;1.13;;;33.30;71.60;;;;;;4996651;28;20768;-82
2021/06/28 12:34:48;;;;;;;1.95;1.00;;;32.80;72.10;;;;;;4997051;28;20038;-83
2021/06/28 12:37:21;;;;;;;2.55;1.35;;;32.90;71.40;;;;;;5005860;28;20391;-83
2021/06/28 12:39:47;;;;;;;1.33;0.90;;;32.90;70.90;;;;;;4993804;28;20480;-82
2021/06/28 12:42:21;;;;;;;1.90;1.10;;;32.70;71.70;;;;;;4985100;28;20037;-82
2021/06/28 12:44:48;;;;;;;3.22;1.20;;;32.70;72.30;;;;;;4989570;28;20026;-80
2021/06/28 12:47:19;;;;;;;2.55;1.27;;;32.80;71.40;;;;;;5003237;28;20019;-83
2021/06/28 12:49:46;;;;;;;2.40;1.00;;;32.80;70.90;;;;;;5003617;28;20113;-81
2021/06/28 12:52:25;;;;;;;2.30;1.10;;;32.80;71.70;;;;;;4989444;28;20050;-82
2021/06/28 12:55:03;;;;;;;2.80;1.45;;;33.10;72.10;;;;;;4996062;28;20029;-80